createdAt,value
2023-05-12T00:01:35.197Z,98616.19
2023-05-12T00:04:02.177Z,98609.00
2023-05-12T00:06:28.852Z,98604.91
2023-05-12T00:08:55.576Z,98601.81
2023-05-12T00:11:22.273Z,98599.31
2023-05-12T00:13:49.154Z,98599.53
2023-05-12T00:16:15.866Z,98598.06
2023-05-12T00:18:42.541Z,98594.38
2023-05-12T00:21:11.015Z,98594.84
2023-05-12T00:23:43.453Z,98592.97
2023-05-12T00:26:10.332Z,98597.09
2023-05-12T00:28:37.187Z,98601.81
2023-05-12T00:31:06.289Z,98593.38
2023-05-12T00:33:33.179Z,98593.16
2023-05-12T00:36:01.010Z,98588.03
2023-05-12T00:38:27.468Z,98585.16
2023-05-12T00:40:54.030Z,98575.94
2023-05-12T00:43:20.785Z,98579.44
2023-05-12T00:45:47.645Z,98584.75
2023-05-12T00:48:16.457Z,98575.94
2023-05-12T00:50:43.154Z,98585.78
2023-05-12T00:53:09.888Z,98585.38
2023-05-12T00:55:49.888Z,98588.84
2023-05-12T00:58:17.239Z,98586.38
2023-05-12T01:00:44.900Z,98574.69
2023-05-12T01:03:11.498Z,98563.00
2023-05-12T01:06:00.904Z,98564.44
2023-05-12T01:08:28.072Z,98569.34
2023-05-12T01:10:54.597Z,98575.88
2023-05-12T01:13:21.461Z,98565.41
2023-05-12T01:15:49.468Z,98568.53
2023-05-12T01:18:19.133Z,98564.84
2023-05-12T01:20:50.180Z,98555.16
2023-05-12T01:23:20.001Z,98563.13
2023-05-12T01:25:49.046Z,98556.38
2023-05-12T01:28:17.316Z,98554.91
2023-05-12T01:30:43.987Z,98553.06
2023-05-12T01:33:10.933Z,98548.38
2023-05-12T01:35:37.639Z,98550.41
2023-05-12T01:38:04.456Z,98543.88
2023-05-12T01:40:31.578Z,98550.44
2023-05-12T01:42:59.177Z,98544.72
2023-05-12T01:45:25.995Z,98549.22
2023-05-12T01:47:52.882Z,98541.00
2023-05-12T01:50:20.012Z,98546.75
2023-05-12T01:52:46.833Z,98548.38
2023-05-12T01:55:13.424Z,98551.63
2023-05-12T01:57:39.995Z,98552.03
2023-05-12T02:00:08.649Z,98558.00
2023-05-12T02:02:35.257Z,98549.78
2023-05-12T02:05:03.967Z,98556.56
2023-05-12T02:07:30.491Z,98554.94
2023-05-12T02:09:59.201Z,98555.34
2023-05-12T02:12:26.122Z,98555.53
2023-05-12T02:14:52.790Z,98551.25
2023-05-12T02:17:19.728Z,98555.97
2023-05-12T02:19:46.239Z,98557.19
2023-05-12T02:22:12.802Z,98556.75
2023-05-12T02:24:39.284Z,98557.75
2023-05-12T02:27:06.086Z,98554.91
2023-05-12T02:29:32.556Z,98559.44
2023-05-12T02:31:59.329Z,98552.84
2023-05-12T02:34:26.169Z,98546.91
2023-05-12T02:36:52.921Z,98547.09
2023-05-12T02:39:27.232Z,98552.81
2023-05-12T02:41:55.303Z,98550.38
2023-05-12T02:44:23.134Z,98547.28
2023-05-12T02:46:49.844Z,98545.81
2023-05-12T02:49:16.386Z,98542.53
2023-05-12T02:51:44.719Z,98542.09
2023-05-12T02:54:12.486Z,98540.25
2023-05-12T02:56:39.071Z,98546.81
2023-05-12T02:59:05.745Z,98537.41
2023-05-12T03:01:32.548Z,98544.16
2023-05-12T03:03:59.035Z,98536.13
2023-05-12T03:06:25.530Z,98546.19
2023-05-12T03:08:52.102Z,98540.84
2023-05-12T03:11:18.474Z,98541.66
2023-05-12T03:13:45.263Z,98547.00
2023-05-12T03:16:11.701Z,98537.56
2023-05-12T03:18:38.475Z,98540.84
2023-05-12T03:21:05.563Z,98533.84
2023-05-12T03:23:32.076Z,98542.88
2023-05-12T03:25:58.620Z,98537.34
2023-05-12T03:28:26.782Z,98541.25
2023-05-12T03:30:54.065Z,98541.41
2023-05-12T03:33:20.588Z,98547.78
2023-05-12T03:35:47.954Z,98543.28
2023-05-12T03:38:15.677Z,98539.97
2023-05-12T03:40:42.726Z,98546.56
2023-05-12T03:43:09.394Z,98541.84
2023-05-12T03:45:36.193Z,98539.81
2023-05-12T03:48:02.781Z,98539.44
2023-05-12T03:50:29.342Z,98536.38
2023-05-12T03:52:58.796Z,98537.59
2023-05-12T03:55:25.331Z,98533.94
2023-05-12T03:57:52.070Z,98532.28
2023-05-12T04:00:18.972Z,98535.72
2023-05-12T04:02:45.849Z,98541.47
2023-05-12T04:05:12.385Z,98536.72
2023-05-12T04:07:38.917Z,98545.31
2023-05-12T04:10:06.227Z,98536.69
2023-05-12T04:12:32.724Z,98537.91
2023-05-12T04:14:59.879Z,98535.88
2023-05-12T04:17:26.722Z,98538.72
2023-05-12T04:19:54.057Z,98542.41
2023-05-12T04:22:21.214Z,98534.41
2023-05-12T04:24:48.780Z,98537.94
2023-05-12T04:27:16.380Z,98537.75
2023-05-12T04:29:42.924Z,98539.19
2023-05-12T04:32:09.554Z,98543.13
2023-05-12T04:34:36.094Z,98549.06
2023-05-12T04:37:02.958Z,98549.88
2023-05-12T04:39:29.708Z,98558.53
2023-05-12T04:41:56.453Z,98558.09
2023-05-12T04:44:23.151Z,98569.19
2023-05-12T04:46:49.806Z,98576.13
2023-05-12T04:49:16.190Z,98583.13
2023-05-12T04:51:42.638Z,98586.41
2023-05-12T04:54:12.530Z,98592.41
2023-05-12T04:56:42.156Z,98602.50
2023-05-12T04:59:09.841Z,98595.91
2023-05-12T05:01:37.505Z,98605.16
2023-05-12T05:04:04.200Z,98612.16
2023-05-12T05:06:31.151Z,98615.28
2023-05-12T05:08:59.993Z,98621.69
2023-05-12T05:11:28.780Z,98625.44
2023-05-12T05:13:55.858Z,98628.94
2023-05-12T05:16:25.435Z,98630.25
2023-05-12T05:18:52.276Z,98643.41
2023-05-12T05:21:18.860Z,98653.06
2023-05-12T05:23:45.758Z,98667.66
2023-05-12T05:26:12.538Z,98680.66
2023-05-12T05:28:39.478Z,98689.09
2023-05-12T05:31:06.506Z,98703.94
2023-05-12T05:33:33.171Z,98720.56
2023-05-12T05:35:59.691Z,98727.00
2023-05-12T05:38:30.096Z,98740.38
2023-05-12T05:40:59.692Z,98758.47
2023-05-12T05:43:26.508Z,98770.41
2023-05-12T05:45:53.087Z,98783.31
2023-05-12T05:48:19.932Z,98787.66
2023-05-12T05:50:46.511Z,98799.59
2023-05-12T05:53:13.060Z,98803.69
2023-05-12T05:55:39.561Z,98806.13
2023-05-12T05:58:06.166Z,98791.41
2023-05-12T06:00:32.613Z,98800.66
2023-05-12T06:02:59.468Z,98813.78
2023-05-12T06:05:26.097Z,98810.25
2023-05-12T06:07:53.907Z,98806.09
2023-05-12T06:10:20.837Z,98806.28
2023-05-12T06:12:47.922Z,98801.63
2023-05-12T06:15:14.486Z,98799.19
2023-05-12T06:17:41.383Z,98808.84
2023-05-12T06:20:08.963Z,98828.19
2023-05-12T06:22:38.398Z,98852.25
2023-05-12T06:25:05.590Z,98850.63
2023-05-12T06:27:32.611Z,98864.66
2023-05-12T06:29:59.508Z,98881.72
2023-05-12T06:32:26.340Z,98890.81
2023-05-12T06:34:53.344Z,98910.50
2023-05-12T06:37:19.989Z,98927.00
2023-05-12T06:39:46.544Z,98945.13
2023-05-12T06:42:13.165Z,98959.69
2023-05-12T06:44:42.092Z,98978.19
2023-05-12T06:47:10.668Z,98999.06
2023-05-12T06:49:37.642Z,99029.47
2023-05-12T06:52:06.169Z,99060.31
2023-05-12T06:54:33.441Z,99055.28
2023-05-12T06:57:00.040Z,99051.31
2023-05-12T06:59:26.634Z,99058.25
2023-05-12T07:01:53.514Z,99056.25
2023-05-12T07:04:19.987Z,99052.44
2023-05-12T07:06:46.712Z,99044.97
2023-05-12T07:09:13.504Z,99041.88
2023-05-12T07:11:40.403Z,99053.34
2023-05-12T07:14:06.988Z,99064.47
2023-05-12T07:16:33.604Z,99064.09
2023-05-12T07:19:00.960Z,99057.25
2023-05-12T07:21:28.275Z,99070.25
2023-05-12T07:23:54.961Z,99076.69
2023-05-12T07:26:21.470Z,99085.94
2023-05-12T07:28:48.453Z,99085.16
2023-05-12T07:33:46.669Z,99057.56
2023-05-12T07:36:13.382Z,99034.41
2023-05-12T07:38:40.938Z,99058.72
2023-05-12T07:41:08.042Z,99075.63
2023-05-12T07:43:35.120Z,99081.25
2023-05-12T07:46:01.976Z,99077.31
2023-05-12T07:48:28.762Z,99066.13
2023-05-12T07:50:55.432Z,99081.59
2023-05-12T07:53:23.295Z,99077.06
2023-05-12T07:55:51.170Z,99102.22
2023-05-12T07:58:19.448Z,99150.78
2023-05-12T08:00:46.107Z,99159.66
2023-05-12T08:03:12.787Z,99125.56
2023-05-12T08:05:39.985Z,99084.44
2023-05-12T08:08:06.862Z,99056.78
2023-05-12T08:10:33.487Z,99036.91
2023-05-12T08:13:00.978Z,98975.56
2023-05-12T08:15:27.600Z,98958.09
2023-05-12T08:17:54.101Z,98928.53
2023-05-12T08:20:20.777Z,98948.09
2023-05-12T08:22:47.834Z,98963.63
2023-05-12T08:25:14.660Z,99004.50
2023-05-12T08:27:42.604Z,99039.69
2023-05-12T08:30:11.033Z,99063.03
2023-05-12T08:32:38.191Z,99063.41
2023-05-12T08:35:06.338Z,99062.41
2023-05-12T08:37:40.322Z,99065.06
2023-05-12T08:40:15.765Z,99064.66
2023-05-12T08:42:53.633Z,99086.94
2023-05-12T08:45:22.456Z,99066.50
2023-05-12T08:47:51.289Z,99030.97
2023-05-12T08:50:21.936Z,99044.75
2023-05-12T08:52:48.894Z,99041.97
2023-05-12T08:55:15.506Z,98981.25
2023-05-12T08:57:43.832Z,98974.78
2023-05-12T09:00:12.941Z,98937.06
2023-05-12T09:02:52.057Z,98903.47
2023-05-12T09:05:21.396Z,98875.44
2023-05-12T09:07:50.259Z,98794.31
2023-05-12T09:10:29.857Z,98742.84
2023-05-12T09:13:12.215Z,98654.28
2023-05-12T09:15:43.334Z,98629.03
2023-05-12T09:18:10.046Z,98631.47
2023-05-12T09:20:36.872Z,98681.44
2023-05-12T09:23:20.417Z,98689.66
2023-05-12T09:25:47.441Z,98687.63
2023-05-12T09:28:14.839Z,98674.44
2023-05-12T09:30:42.002Z,98676.31
2023-05-12T09:33:13.022Z,98728.28
2023-05-12T09:35:44.156Z,98712.50
2023-05-12T09:38:12.750Z,98709.50
2023-05-12T09:40:39.821Z,98746.22
2023-05-12T09:43:07.618Z,98760.13
2023-05-12T09:45:35.877Z,98717.66
2023-05-12T09:48:13.076Z,98694.28
2023-05-12T09:50:54.488Z,98683.81
2023-05-12T09:53:22.071Z,98710.50
2023-05-12T09:55:49.387Z,98718.38
2023-05-12T09:58:20.792Z,98686.97
2023-05-12T10:03:18.743Z,98542.72
2023-05-12T10:05:53.713Z,98525.69
2023-05-12T10:08:25.654Z,98545.31
2023-05-12T10:10:54.697Z,98534.88
2023-05-12T10:13:22.674Z,98557.94
2023-05-12T10:15:50.583Z,98601.59
2023-05-12T10:18:18.923Z,98611.19
2023-05-12T10:20:45.591Z,98611.25
2023-05-12T10:23:13.253Z,98645.88
2023-05-12T10:25:44.826Z,98671.97
2023-05-12T10:28:12.494Z,98655.38
2023-05-12T10:30:41.623Z,98752.88
2023-05-12T10:33:09.126Z,98911.78
2023-05-12T10:35:39.485Z,98931.97
2023-05-12T10:38:08.504Z,98914.53
2023-05-12T10:40:36.292Z,98903.41
2023-05-12T10:43:06.186Z,98967.81
2023-05-12T10:45:36.405Z,99012.31
2023-05-12T10:48:07.530Z,99083.22
2023-05-12T10:50:36.671Z,99075.91
2023-05-12T10:53:03.152Z,99078.09
2023-05-12T10:55:36.342Z,99071.78
2023-05-12T10:58:09.864Z,99068.91
2023-05-12T11:00:50.847Z,99076.78
2023-05-12T11:03:27.528Z,99018.31
2023-05-12T11:06:03.309Z,99068.34
2023-05-12T11:08:30.875Z,99042.84
2023-05-12T11:10:59.105Z,99102.06
2023-05-12T11:13:32.615Z,99046.53
2023-05-12T11:15:59.160Z,98999.75
2023-05-12T11:18:25.855Z,99019.09
2023-05-12T11:20:52.763Z,99008.00
2023-05-12T11:23:26.864Z,98966.47
2023-05-12T11:25:56.456Z,99001.25
2023-05-12T11:28:23.081Z,99024.03
2023-05-12T11:30:55.248Z,98960.53
2023-05-12T11:33:23.196Z,98893.69
2023-05-12T11:35:50.718Z,98872.88
2023-05-12T11:38:18.221Z,98788.47
2023-05-12T11:40:45.341Z,98804.75
2023-05-12T11:43:12.994Z,98779.41
2023-05-12T11:45:40.030Z,98760.63
2023-05-12T11:48:12.117Z,98786.78
2023-05-12T11:50:43.594Z,98803.84
2023-05-12T11:53:15.903Z,98764.34
2023-05-12T11:55:52.849Z,98772.16
2023-05-12T11:58:25.712Z,98774.94
2023-05-12T12:00:53.827Z,98772.88
2023-05-12T12:03:21.389Z,98853.44
2023-05-12T12:05:59.760Z,98803.19
2023-05-12T12:08:26.584Z,98768.19
2023-05-12T12:10:53.326Z,98707.38
2023-05-12T12:13:25.366Z,98695.97
2023-05-12T12:15:54.595Z,98619.41
2023-05-12T12:18:28.609Z,98631.41
2023-05-12T12:20:55.530Z,98588.13
2023-05-12T12:23:23.147Z,98588.56
2023-05-12T12:25:51.021Z,98603.50
2023-05-12T12:28:17.633Z,98590.13
2023-05-12T12:30:44.340Z,98621.22
2023-05-12T12:33:12.929Z,98637.50
2023-05-12T12:35:39.917Z,98617.28
2023-05-12T12:38:07.080Z,98621.69
2023-05-12T12:40:34.606Z,98651.28
2023-05-12T12:43:01.394Z,98673.44
2023-05-12T12:45:27.917Z,98646.53
2023-05-12T12:47:54.470Z,98678.28
2023-05-12T12:50:21.132Z,98650.44
2023-05-12T12:52:47.643Z,98626.78
2023-05-12T12:55:14.466Z,98668.47
2023-05-12T12:57:41.056Z,98660.16
2023-05-12T13:00:08.685Z,98633.09
2023-05-12T13:02:35.684Z,98589.72
2023-05-12T13:05:04.175Z,98600.38
2023-05-12T13:07:31.057Z,98608.78
2023-05-12T13:09:58.614Z,98617.66
2023-05-12T13:12:26.129Z,98629.59
2023-05-12T13:14:52.990Z,98616.72
2023-05-12T13:17:19.842Z,98589.06
2023-05-12T13:19:47.353Z,98595.41
2023-05-12T13:22:13.990Z,98562.34
2023-05-12T13:24:40.794Z,98574.97
2023-05-12T13:28:18.019Z,98601.31
2023-05-12T13:30:44.654Z,98578.09
2023-05-12T13:33:11.258Z,98619.09
2023-05-12T13:35:37.839Z,98628.53
2023-05-12T13:38:04.345Z,98600.53
2023-05-12T13:40:30.851Z,98609.25
2023-05-12T13:42:57.226Z,98627.31
2023-05-12T13:45:23.926Z,98628.66
2023-05-12T13:47:51.092Z,98607.72
2023-05-12T13:50:17.745Z,98570.63
2023-05-12T13:52:44.344Z,98585.13
2023-05-12T13:55:16.316Z,98630.00
2023-05-12T13:57:47.205Z,98625.41
2023-05-12T14:00:14.301Z,98574.03
2023-05-12T14:02:40.787Z,98608.41
2023-05-12T14:05:08.132Z,98571.94
2023-05-12T14:07:35.825Z,98614.31
2023-05-12T14:10:02.732Z,98648.69
2023-05-12T14:12:29.366Z,98658.53
2023-05-12T14:15:04.531Z,98671.38
2023-05-12T14:17:38.714Z,98647.34
2023-05-12T14:20:05.937Z,98697.66
2023-05-12T14:22:33.047Z,98745.81
2023-05-12T14:24:59.548Z,98778.38
2023-05-12T14:27:26.041Z,98739.47
2023-05-12T14:29:52.699Z,98708.97
2023-05-12T14:32:19.185Z,98725.78
2023-05-12T14:34:45.533Z,98720.25
2023-05-12T14:37:11.965Z,98793.00
2023-05-12T14:39:38.394Z,98786.25
2023-05-12T14:42:05.144Z,98748.06
2023-05-12T14:44:31.563Z,98721.63
2023-05-12T14:46:58.570Z,98748.03
2023-05-12T14:49:25.057Z,98730.75
2023-05-12T14:51:51.586Z,98722.81
2023-05-12T14:54:25.295Z,98648.53
2023-05-12T14:56:52.290Z,98672.56
2023-05-12T14:59:18.837Z,98664.59
2023-05-12T15:01:45.299Z,98708.28
2023-05-12T15:04:12.125Z,98732.31
2023-05-12T15:06:38.742Z,98754.91
2023-05-12T15:09:05.723Z,98782.44
2023-05-12T15:11:33.077Z,98798.38
2023-05-12T15:13:59.866Z,98794.44
2023-05-12T15:16:26.413Z,98809.06
2023-05-12T15:18:53.350Z,98773.16
2023-05-12T15:21:19.813Z,98758.91
2023-05-12T15:23:46.244Z,98751.56
2023-05-12T15:26:26.983Z,98725.66
2023-05-12T15:28:58.106Z,98688.03
2023-05-12T15:31:24.680Z,98684.41
2023-05-12T15:33:51.089Z,98681.22
2023-05-12T15:36:17.571Z,98724.38
2023-05-12T15:38:44.021Z,98765.16
2023-05-12T15:41:10.471Z,98740.00
2023-05-12T15:43:37.617Z,98762.59
2023-05-12T15:46:04.697Z,98759.34
2023-05-12T15:48:32.283Z,98754.91
2023-05-12T15:50:58.775Z,98751.75
2023-05-12T15:53:25.269Z,98781.19
2023-05-12T15:56:00.021Z,98803.97
2023-05-12T15:58:26.963Z,98787.28
2023-05-12T16:00:54.555Z,98797.34
2023-05-12T16:03:21.040Z,98797.31
2023-05-12T16:05:47.875Z,98771.09
2023-05-12T16:08:14.491Z,98766.53
2023-05-12T16:10:41.065Z,98804.75
2023-05-12T16:13:07.811Z,98801.53
2023-05-12T16:15:34.417Z,98793.03
2023-05-12T16:18:01.258Z,98806.97
2023-05-12T16:20:28.745Z,98847.56
2023-05-12T16:22:56.280Z,98821.69
2023-05-12T16:25:23.235Z,98851.00
2023-05-12T16:27:50.605Z,98855.41
2023-05-12T16:30:19.331Z,98839.22
2023-05-12T16:32:47.968Z,98837.34
2023-05-12T16:35:14.601Z,98822.06
2023-05-12T16:37:41.233Z,98774.50
2023-05-12T16:40:08.440Z,98797.03
2023-05-12T16:42:37.834Z,98828.50
2023-05-12T16:45:10.996Z,98826.00
2023-05-12T16:47:37.912Z,98789.91
2023-05-12T16:50:04.980Z,98838.41
2023-05-12T16:52:31.454Z,98835.66
2023-05-12T16:54:58.241Z,98850.19
2023-05-12T16:57:26.438Z,98872.44
2023-05-12T16:59:53.272Z,98889.91
2023-05-12T17:02:19.909Z,98883.69
2023-05-12T17:04:46.686Z,98894.34
2023-05-12T17:07:13.179Z,98904.66
2023-05-12T17:09:41.719Z,98899.28
2023-05-12T17:12:08.850Z,98897.19
2023-05-12T17:14:35.403Z,98929.22
2023-05-12T17:17:10.487Z,98933.94
2023-05-12T17:19:37.003Z,98960.22
2023-05-12T17:22:03.588Z,98969.09
2023-05-12T17:24:30.512Z,98942.50
2023-05-12T17:26:57.011Z,98979.41
2023-05-12T17:29:23.725Z,98966.50
2023-05-12T17:31:50.281Z,98981.78
2023-05-12T17:34:16.926Z,99002.03
2023-05-12T17:36:43.433Z,98998.09
2023-05-12T17:39:09.980Z,99011.31
2023-05-12T17:41:36.424Z,98990.75
2023-05-12T17:44:03.291Z,99002.63
2023-05-12T17:46:30.671Z,98982.88
2023-05-12T17:48:57.188Z,98996.16
2023-05-12T17:51:23.814Z,99032.91
2023-05-12T17:53:50.426Z,99037.44
2023-05-12T17:56:16.826Z,99075.50
2023-05-12T17:58:43.459Z,99083.13
2023-05-12T18:01:11.060Z,99092.25
2023-05-12T18:03:37.755Z,99115.44
2023-05-12T18:06:04.290Z,99154.69
2023-05-12T18:08:31.175Z,99140.22
2023-05-12T18:10:58.020Z,99175.97
2023-05-12T18:13:28.285Z,99212.53
2023-05-12T18:15:55.231Z,99228.38
2023-05-12T18:18:22.143Z,99257.69
2023-05-12T18:20:48.825Z,99265.94
2023-05-12T18:23:15.395Z,99259.97
2023-05-12T18:25:42.180Z,99257.88
2023-05-12T18:28:08.694Z,99258.72
2023-05-12T18:30:35.497Z,99245.09
2023-05-12T18:33:02.045Z,99246.75
2023-05-12T18:35:28.712Z,99269.41
2023-05-12T18:37:55.238Z,99292.75
2023-05-12T18:40:21.782Z,99281.78
2023-05-12T18:42:48.407Z,99304.88
2023-05-12T18:45:15.502Z,99312.72
2023-05-12T18:47:42.219Z,99310.69
2023-05-12T18:50:10.251Z,99286.50
2023-05-12T18:52:37.004Z,99314.75
2023-05-12T18:55:03.679Z,99336.84
2023-05-12T18:57:30.197Z,99329.00
2023-05-12T18:59:56.738Z,99340.53
2023-05-12T19:02:23.422Z,99340.75
2023-05-12T19:04:50.028Z,99345.28
2023-05-12T19:07:16.967Z,99345.50
2023-05-12T19:09:43.839Z,99318.03
2023-05-12T19:12:12.591Z,99306.56
2023-05-12T19:14:42.413Z,99286.06
2023-05-12T19:17:09.017Z,99289.75
2023-05-12T19:19:36.357Z,99304.56
2023-05-12T19:22:03.104Z,99299.16
2023-05-12T19:24:29.930Z,99285.38
2023-05-12T19:26:56.647Z,99278.00
2023-05-12T19:29:24.547Z,99259.41
2023-05-12T19:31:51.656Z,99281.69
2023-05-12T19:34:18.518Z,99270.75
2023-05-12T19:36:45.298Z,99292.59
2023-05-12T19:39:11.808Z,99309.72
2023-05-12T19:41:38.243Z,99297.31
2023-05-12T19:44:04.799Z,99301.03
2023-05-12T19:46:33.488Z,99310.72
2023-05-12T19:49:00.138Z,99302.50
2023-05-12T19:51:26.630Z,99287.22
2023-05-12T19:53:57.991Z,99316.69
2023-05-12T19:56:24.795Z,99298.94
2023-05-12T19:58:51.961Z,99318.28
2023-05-12T20:01:18.475Z,99326.94
2023-05-12T20:03:45.819Z,99332.50
2023-05-12T20:06:12.430Z,99325.28
2023-05-12T20:08:39.264Z,99349.16
2023-05-12T20:11:05.915Z,99336.03
2023-05-12T20:13:32.554Z,99334.28
2023-05-12T20:15:59.375Z,99343.56
2023-05-12T20:18:25.918Z,99337.38
2023-05-12T20:20:52.485Z,99316.16
2023-05-12T20:23:19.225Z,99309.38
2023-05-12T20:25:45.837Z,99309.97
2023-05-12T20:28:12.297Z,99304.66
2023-05-12T20:30:38.760Z,99279.53
2023-05-12T20:33:06.428Z,99300.94
2023-05-12T20:35:34.410Z,99312.66
2023-05-12T20:38:01.179Z,99321.91
2023-05-12T20:40:27.895Z,99305.00
2023-05-12T20:42:54.357Z,99264.81
2023-05-12T20:45:21.508Z,99247.84
2023-05-12T20:47:48.433Z,99257.09
2023-05-12T20:50:16.959Z,99279.53
2023-05-12T20:52:46.408Z,99282.22
2023-05-12T20:55:12.936Z,99302.16
2023-05-12T20:57:39.414Z,99316.09
2023-05-12T21:00:11.207Z,99315.25
2023-05-12T21:02:38.127Z,99306.00
2023-05-12T21:05:05.192Z,99294.25
2023-05-12T21:07:32.441Z,99289.53
2023-05-12T21:10:03.723Z,99270.78
2023-05-12T21:12:31.469Z,99275.47
2023-05-12T21:14:58.020Z,99290.53
2023-05-12T21:17:24.566Z,99287.22
2023-05-12T21:19:51.209Z,99314.13
2023-05-12T21:22:17.974Z,99306.72
2023-05-12T21:24:44.502Z,99328.28
2023-05-12T21:27:10.879Z,99344.44
2023-05-12T21:29:37.369Z,99349.75
2023-05-12T21:32:04.231Z,99368.25
2023-05-12T21:34:31.200Z,99364.72
2023-05-12T21:36:57.713Z,99386.91
2023-05-12T21:39:24.221Z,99379.16
2023-05-12T21:41:50.748Z,99398.00
2023-05-12T21:44:17.416Z,99390.88
2023-05-12T21:46:43.989Z,99406.81
2023-05-12T21:49:10.601Z,99391.28
2023-05-12T21:51:37.114Z,99419.13
2023-05-12T21:54:03.800Z,99434.00
2023-05-12T21:56:30.287Z,99447.19
2023-05-12T21:58:56.988Z,99451.16
2023-05-12T22:01:23.555Z,99460.03
2023-05-12T22:03:50.148Z,99471.03
2023-05-12T22:06:16.700Z,99484.56
2023-05-12T22:08:43.271Z,99499.81
2023-05-12T22:11:10.395Z,99486.44
2023-05-12T22:13:36.951Z,99482.63
2023-05-12T22:16:03.727Z,99497.31
2023-05-12T22:18:30.660Z,99512.81
2023-05-12T22:20:57.173Z,99518.53
2023-05-12T22:23:23.620Z,99525.09
2023-05-12T22:25:50.140Z,99538.19
2023-05-12T22:28:16.751Z,99547.44
2023-05-12T22:30:43.344Z,99535.50
2023-05-12T22:33:10.250Z,99556.81
2023-05-12T22:35:38.437Z,99571.13
2023-05-12T22:38:04.978Z,99597.41
2023-05-12T22:40:32.483Z,99608.84
2023-05-12T22:42:58.979Z,99629.56
2023-05-12T22:45:25.705Z,99636.41
2023-05-12T22:47:53.281Z,99651.63
2023-05-12T22:50:20.731Z,99648.59
2023-05-12T22:52:47.546Z,99639.56
2023-05-12T22:55:14.068Z,99631.88
2023-05-12T22:57:40.533Z,99636.41
2023-05-12T23:00:07.913Z,99623.03
2023-05-12T23:02:34.755Z,99627.38
2023-05-12T23:05:01.686Z,99633.06
2023-05-12T23:07:28.202Z,99643.31
2023-05-12T23:09:54.725Z,99649.84
2023-05-12T23:12:21.402Z,99651.88
2023-05-12T23:14:48.186Z,99661.09
2023-05-12T23:17:14.926Z,99657.75
2023-05-12T23:19:41.268Z,99663.31
2023-05-12T23:22:08.086Z,99664.97
2023-05-12T23:24:34.555Z,99680.81
2023-05-12T23:27:00.964Z,99671.78
2023-05-12T23:29:27.820Z,99673.28
2023-05-12T23:31:54.380Z,99677.59
2023-05-12T23:34:20.885Z,99668.75
2023-05-12T23:36:47.565Z,99671.44
2023-05-12T23:39:14.083Z,99666.72
2023-05-12T23:41:40.556Z,99659.34
2023-05-12T23:44:07.170Z,99654.00
2023-05-12T23:46:33.711Z,99647.47
2023-05-12T23:49:00.184Z,99640.09
2023-05-12T23:51:27.865Z,99629.41
2023-05-12T23:53:54.323Z,99621.38
2023-05-12T23:56:21.050Z,99630.03
2023-05-12T23:58:47.469Z,99629.03
